Campanya Meteocatpedra
Centenari de l'SMC: 100 anys mirant el cel

Dades de l'estació automàtica Vallfogona de Balaguer

?
?

Resum diari

22:00 TU
Dades diàries de l'estació meteorològica
Temperatura mitjana 17.3 °C
Temperatura màxima 25.9 °C 14:19 TU
Temperatura mínima 10.3 °C 6:17 TU
Humitat relativa mitjana 64%
Precipitació acumulada 0.0 mm
Ratxa màxima del vent (2 m) 29.9 km/h - 256º 15:21 TU
Irradiació solar global 19.9 MJ/m2

El tram horari està expressat en Temps Universal (TU). Cal sumar una hora en horari d'hivern i dues en horari d'estiu per passar a l'hora oficial.

Vallfogona de Balaguer

Metadades estació meteorològica
Municipi Vallfogona de Balaguer
Comarca Noguera
Altitud 238 m
Data alta 17.10.1990
Estat actual Operativa
Dades de període
Període
TU
TM
°C
TX
°C
TN
°C
HRM
%
PPT
mm
VVM (2 m)
km/h
DVM (2 m)
graus
VVX (2 m)
km/h
RS
W/m2
00:00 - 00:30 12.4 12.6 12.2 93 0.0 0.4 54 3.6 0
00:30 - 01:00 12.4 12.5 12.3 92 0.0 1.1 16 3.2 0
01:00 - 01:30 12.1 12.4 11.8 92 0.0 1.8 9 5.8 0
01:30 - 02:00 11.5 11.7 11.5 93 0.0 1.1 15 4.3 0
02:00 - 02:30 11.4 11.5 11.3 94 0.0 0.4 23 4.0 0
02:30 - 03:00 11.2 11.3 11.1 94 0.0 0.4 24 1.8 0
03:00 - 03:30 11.3 11.4 11.2 94 0.0 0.4 31 3.6 0
03:30 - 04:00 11.1 11.3 10.9 95 0.0 0.4 30 2.5 0
04:00 - 04:30 10.9 11.1 10.8 95 0.0 1.8 19 4.7 0
04:30 - 05:00 11.1 11.2 10.8 95 0.0 1.4 33 3.6 0
05:00 - 05:30 10.7 11.0 10.5 96 0.0 0.0 129 1.1 0
05:30 - 06:00 10.4 10.6 10.3 96 0.0 0.7 22 3.2 3
06:00 - 06:30 10.4 10.5 10.3 96 0.0 0.7 357 2.2 23
06:30 - 07:00 11.5 12.5 10.4 92 0.0 1.1 11 3.6 134
07:00 - 07:30 13.6 14.7 12.4 85 0.0 1.1 0 4.7 250
07:30 - 08:00 15.5 16.3 14.6 78 0.0 1.1 329 5.0 370
08:00 - 08:30 16.5 17.0 16.0 71 0.0 3.2 268 9.0 421
08:30 - 09:00 17.5 17.9 17.0 67 0.0 4.3 243 11.2 474
09:00 - 09:30 18.1 18.7 17.7 64 0.0 5.8 269 14.4 507
09:30 - 10:00 19.2 19.8 18.7 61 0.0 6.8 252 16.9 643
10:00 - 10:30 20.2 20.7 19.8 56 0.0 9.7 271 22.0 698
10:30 - 11:00 21.0 21.5 20.7 54 0.0 10.1 271 20.9 733
11:00 - 11:30 21.9 22.5 21.6 50 0.0 9.4 278 20.2 754
11:30 - 12:00 22.6 23.4 21.9 49 0.0 8.3 270 22.0 766
12:00 - 12:30 23.5 24.0 23.2 46 0.0 10.1 284 20.2 771
12:30 - 13:00 24.2 24.7 23.7 41 0.0 11.5 283 22.3 738
13:00 - 13:30 24.9 25.7 24.4 39 0.0 10.4 275 21.6 718
13:30 - 14:00 25.2 25.5 24.9 35 0.0 11.5 274 23.8 677
14:00 - 14:30 25.4 25.9 25.2 32 0.0 12.6 272 26.3 629
14:30 - 15:00 25.4 25.8 25.0 30 0.0 11.9 270 22.7 562
15:00 - 15:30 25.1 25.5 24.9 28 0.0 14.8 267 29.9 488
15:30 - 16:00 24.6 25.1 24.0 29 0.0 16.2 271 26.6 387
16:00 - 16:30 23.4 24.2 22.6 31 0.0 14.0 267 24.1 174
16:30 - 17:00 22.3 22.6 22.0 35 0.0 11.5 262 22.7 86
17:00 - 17:30 21.7 22.1 21.2 37 0.0 9.7 261 21.2 52
17:30 - 18:00 20.5 21.1 19.9 38 0.0 9.0 262 18.7 11
18:00 - 18:30 19.2 19.9 18.5 42 0.0 2.9 244 11.2 0
18:30 - 19:00 18.0 18.4 17.4 47 0.0 1.8 289 4.7 0
19:00 - 19:30 17.0 17.6 16.6 55 0.0 2.2 164 7.2 0
19:30 - 20:00 16.3 16.6 15.9 58 0.0 4.3 134 11.2 0
20:00 - 20:30 15.9 16.1 15.5 59 0.0 3.2 128 9.4 0
20:30 - 21:00 15.8 16.0 15.6 60 0.0 4.3 132 7.2 0
21:00 - 21:30 16.0 16.4 15.6 59 0.0 5.0 136 13.0 0
21:30 - 22:00 15.8 16.2 15.6 60 0.0 2.2 133 6.8 0
22:00 - 22:30 15.3 15.7 14.9 65 0.0 3.6 138 6.1 0

Les dades en taronja només han passat un control de qualitat automàtic. Resta pendent la seva validació definitiva.